sensor_id;sensor_type;location;lat;lon;timestamp;pressure;altitude;pressure_sealevel;temperature;humidity
36380;BME280;22411;53.016;18.632;2023-02-19T00:01:41;100147.84;;;2.01;100.00
36380;BME280;22411;53.016;18.632;2023-02-19T00:04:12;100161.22;;;2.08;100.00
36380;BME280;22411;53.016;18.632;2023-02-19T00:06:39;100156.28;;;2.03;100.00
36380;BME280;22411;53.016;18.632;2023-02-19T00:09:06;100161.31;;;2.05;100.00
36380;BME280;22411;53.016;18.632;2023-02-19T00:11:33;100161.31;;;2.05;100.00
36380;BME280;22411;53.016;18.632;2023-02-19T00:14:02;100167.16;;;2.08;100.00
36380;BME280;22411;53.016;18.632;2023-02-19T00:16:30;100165.66;;;2.03;100.00
36380;BME280;22411;53.016;18.632;2023-02-19T00:18:58;100172.34;;;2.07;100.00
36380;BME280;22411;53.016;18.632;2023-02-19T00:21:24;100177.56;;;2.04;100.00
36380;BME280;22411;53.016;18.632;2023-02-19T00:23:56;100176.56;;;2.08;100.00
36380;BME280;22411;53.016;18.632;2023-02-19T00:26:23;100165.59;;;2.04;100.00
36380;BME280;22411;53.016;18.632;2023-02-19T00:28:50;100168.81;;;2.09;100.00
36380;BME280;22411;53.016;18.632;2023-02-19T00:31:23;100172.44;;;2.04;100.00
36380;BME280;22411;53.016;18.632;2023-02-19T00:33:55;100165.56;;;2.06;100.00
36380;BME280;22411;53.016;18.632;2023-02-19T00:36:22;100169.88;;;2.04;100.00
36380;BME280;22411;53.016;18.632;2023-02-19T00:38:49;100163.94;;;2.03;100.00
36380;BME280;22411;53.016;18.632;2023-02-19T00:41:16;100166.72;;;1.97;100.00
36380;BME280;22411;53.016;18.632;2023-02-19T00:43:47;100161.13;;;1.88;100.00
36380;BME280;22411;53.016;18.632;2023-02-19T00:46:19;100164.41;;;1.91;100.00
36380;BME280;22411;53.016;18.632;2023-02-19T00:48:46;100163.69;;;1.88;100.00
36380;BME280;22411;53.016;18.632;2023-02-19T00:51:12;100166.97;;;1.91;100.00
36380;BME280;22411;53.016;18.632;2023-02-19T00:53:38;100173.84;;;1.89;100.00
36380;BME280;22411;53.016;18.632;2023-02-19T00:56:04;100171.34;;;1.88;100.00
36380;BME280;22411;53.016;18.632;2023-02-19T00:58:31;100165.31;;;1.90;100.00
36380;BME280;22411;53.016;18.632;2023-02-19T01:00:57;100175.34;;;1.95;100.00
36380;BME280;22411;53.016;18.632;2023-02-19T01:03:23;100175.16;;;1.99;100.00
36380;BME280;22411;53.016;18.632;2023-02-19T01:05:50;100162.22;;;2.04;100.00
36380;BME280;22411;53.016;18.632;2023-02-19T01:08:17;100164.00;;;2.02;100.00
36380;BME280;22411;53.016;18.632;2023-02-19T01:10:43;100162.34;;;2.01;100.00
36380;BME280;22411;53.016;18.632;2023-02-19T01:13:10;100163.84;;;2.06;100.00
36380;BME280;22411;53.016;18.632;2023-02-19T01:15:36;100156.75;;;2.13;100.00
36380;BME280;22411;53.016;18.632;2023-02-19T01:18:02;100151.47;;;2.18;100.00
36380;BME280;22411;53.016;18.632;2023-02-19T01:20:28;100155.59;;;2.20;100.00
36380;BME280;22411;53.016;18.632;2023-02-19T01:22:55;100159.53;;;2.29;100.00
36380;BME280;22411;53.016;18.632;2023-02-19T01:25:21;100163.00;;;2.28;100.00
36380;BME280;22411;53.016;18.632;2023-02-19T01:27:47;100160.91;;;2.38;100.00
36380;BME280;22411;53.016;18.632;2023-02-19T01:30:13;100167.59;;;2.40;100.00
36380;BME280;22411;53.016;18.632;2023-02-19T01:32:39;100180.03;;;2.49;100.00
36380;BME280;22411;53.016;18.632;2023-02-19T01:35:05;100177.41;;;2.51;100.00
36380;BME280;22411;53.016;18.632;2023-02-19T01:37:31;100181.59;;;2.53;100.00
36380;BME280;22411;53.016;18.632;2023-02-19T01:39:57;100176.34;;;2.56;100.00
36380;BME280;22411;53.016;18.632;2023-02-19T01:42:23;100190.78;;;2.57;100.00
36380;BME280;22411;53.016;18.632;2023-02-19T01:45:28;100179.53;;;2.61;100.00
36380;BME280;22411;53.016;18.632;2023-02-19T01:48:08;100176.22;;;2.59;100.00
36380;BME280;22411;53.016;18.632;2023-02-19T01:50:44;100174.56;;;2.58;100.00
36380;BME280;22411;53.016;18.632;2023-02-19T01:53:13;100167.75;;;2.57;100.00
36380;BME280;22411;53.016;18.632;2023-02-19T01:55:41;100163.28;;;2.62;100.00
36380;BME280;22411;53.016;18.632;2023-02-19T01:58:09;100164.00;;;2.66;100.00
36380;BME280;22411;53.016;18.632;2023-02-19T02:00:35;100164.72;;;2.70;100.00
36380;BME280;22411;53.016;18.632;2023-02-19T02:03:02;100166.56;;;2.66;100.00
36380;BME280;22411;53.016;18.632;2023-02-19T02:08:09;100158.88;;;2.66;100.00
36380;BME280;22411;53.016;18.632;2023-02-19T02:10:54;100165.84;;;2.62;100.00
36380;BME280;22411;53.016;18.632;2023-02-19T02:13:22;100171.78;;;2.63;100.00
36380;BME280;22411;53.016;18.632;2023-02-19T02:16:03;100161.50;;;2.65;100.00
36380;BME280;22411;53.016;18.632;2023-02-19T02:21:20;100160.53;;;2.67;100.00
36380;BME280;22411;53.016;18.632;2023-02-19T02:31:42;100144.53;;;2.62;100.00
36380;BME280;22411;53.016;18.632;2023-02-19T02:34:15;100141.78;;;2.67;100.00
36380;BME280;22411;53.016;18.632;2023-02-19T02:36:43;100134.84;;;2.70;100.00
36380;BME280;22411;53.016;18.632;2023-02-19T02:39:13;100136.59;;;2.68;100.00
36380;BME280;22411;53.016;18.632;2023-02-19T02:41:47;100131.38;;;2.71;100.00
36380;BME280;22411;53.016;18.632;2023-02-19T02:44:35;100127.16;;;2.70;100.00
36380;BME280;22411;53.016;18.632;2023-02-19T02:47:03;100112.88;;;2.65;100.00
36380;BME280;22411;53.016;18.632;2023-02-19T02:49:32;100118.06;;;2.63;100.00
36380;BME280;22411;53.016;18.632;2023-02-19T02:52:19;100105.50;;;2.57;100.00
36380;BME280;22411;53.016;18.632;2023-02-19T02:55:08;100104.56;;;2.59;100.00
36380;BME280;22411;53.016;18.632;2023-02-19T02:57:35;100107.13;;;2.59;100.00
36380;BME280;22411;53.016;18.632;2023-02-19T03:00:01;100102.28;;;2.53;100.00
36380;BME280;22411;53.016;18.632;2023-02-19T03:02:28;100102.13;;;2.56;100.00
36380;BME280;22411;53.016;18.632;2023-02-19T03:05:04;100095.16;;;2.60;100.00
36380;BME280;22411;53.016;18.632;2023-02-19T03:13:06;100091.31;;;2.50;100.00
36380;BME280;22411;53.016;18.632;2023-02-19T03:15:58;100091.44;;;2.47;100.00
36380;BME280;22411;53.016;18.632;2023-02-19T03:18:47;100094.00;;;2.47;100.00
36380;BME280;22411;53.016;18.632;2023-02-19T03:21:35;100097.47;;;2.46;100.00
36380;BME280;22411;53.016;18.632;2023-02-19T03:24:03;100092.53;;;2.41;100.00
36380;BME280;22411;53.016;18.632;2023-02-19T03:26:50;100088.63;;;2.32;100.00
36380;BME280;22411;53.016;18.632;2023-02-19T03:29:23;100093.50;;;2.39;100.00
36380;BME280;22411;53.016;18.632;2023-02-19T03:31:57;100095.59;;;2.29;100.00
36380;BME280;22411;53.016;18.632;2023-02-19T03:34:29;100088.88;;;2.26;100.00
36380;BME280;22411;53.016;18.632;2023-02-19T03:37:09;100089.75;;;2.25;100.00
36380;BME280;22411;53.016;18.632;2023-02-19T03:39:36;100090.91;;;2.18;100.00
36380;BME280;22411;53.016;18.632;2023-02-19T03:42:34;100093.53;;;2.17;100.00
36380;BME280;22411;53.016;18.632;2023-02-19T03:45:24;100094.13;;;2.23;100.00
36380;BME280;22411;53.016;18.632;2023-02-19T04:01:59;100096.53;;;2.06;100.00
36380;BME280;22411;53.016;18.632;2023-02-19T04:04:36;100093.97;;;2.06;100.00
36380;BME280;22411;53.016;18.632;2023-02-19T04:07:04;100090.63;;;2.04;100.00
36380;BME280;22411;53.016;18.632;2023-02-19T04:09:35;100088.25;;;1.99;100.00
36380;BME280;22411;53.016;18.632;2023-02-19T04:12:06;100090.94;;;1.96;100.00
36380;BME280;22411;53.016;18.632;2023-02-19T04:17:14;100091.78;;;1.97;100.00
36380;BME280;22411;53.016;18.632;2023-02-19T04:19:43;100089.28;;;1.95;100.00
36380;BME280;22411;53.016;18.632;2023-02-19T04:22:13;100089.50;;;1.89;100.00
36380;BME280;22411;53.016;18.632;2023-02-19T04:24:52;100080.84;;;1.93;100.00
36380;BME280;22411;53.016;18.632;2023-02-19T04:27:20;100082.66;;;1.90;100.00
36380;BME280;22411;53.016;18.632;2023-02-19T04:29:46;100076.63;;;1.92;100.00
36380;BME280;22411;53.016;18.632;2023-02-19T04:32:13;100079.19;;;1.92;100.00
36380;BME280;22411;53.016;18.632;2023-02-19T04:34:39;100076.63;;;1.92;100.00
36380;BME280;22411;53.016;18.632;2023-02-19T04:37:05;100072.50;;;1.88;100.00
36380;BME280;22411;53.016;18.632;2023-02-19T04:39:31;100084.28;;;1.92;100.00
36380;BME280;22411;53.016;18.632;2023-02-19T04:41:57;100084.34;;;1.91;100.00
36380;BME280;22411;53.016;18.632;2023-02-19T04:44:23;100084.38;;;1.89;100.00
36380;BME280;22411;53.016;18.632;2023-02-19T04:46:49;100084.47;;;1.88;100.00
36380;BME280;22411;53.016;18.632;2023-02-19T04:49:15;100090.53;;;1.85;100.00
36380;BME280;22411;53.016;18.632;2023-02-19T04:51:41;100096.41;;;1.87;100.00
36380;BME280;22411;53.016;18.632;2023-02-19T04:54:07;100087.25;;;1.81;100.00
36380;BME280;22411;53.016;18.632;2023-02-19T04:56:33;100092.13;;;1.88;100.00
36380;BME280;22411;53.016;18.632;2023-02-19T04:58:59;100072.69;;;1.83;100.00
36380;BME280;22411;53.016;18.632;2023-02-19T05:01:25;100081.16;;;1.86;100.00
36380;BME280;22411;53.016;18.632;2023-02-19T05:03:51;100077.94;;;1.80;100.00
36380;BME280;22411;53.016;18.632;2023-02-19T05:06:17;100082.25;;;1.78;100.00
36380;BME280;22411;53.016;18.632;2023-02-19T05:08:43;100083.81;;;1.82;100.00
36380;BME280;22411;53.016;18.632;2023-02-19T05:11:12;100090.47;;;1.87;100.00
36380;BME280;22411;53.016;18.632;2023-02-19T05:13:39;100089.56;;;1.88;100.00
36380;BME280;22411;53.016;18.632;2023-02-19T05:16:08;100091.19;;;1.90;100.00
36380;BME280;22411;53.016;18.632;2023-02-19T05:18:35;100091.22;;;1.89;100.00
36380;BME280;22411;53.016;18.632;2023-02-19T05:21:01;100097.31;;;1.86;100.00
36380;BME280;22411;53.016;18.632;2023-02-19T05:23:27;100101.63;;;1.84;100.00
36380;BME280;22411;53.016;18.632;2023-02-19T05:25:53;100093.28;;;1.80;100.00
36380;BME280;22411;53.016;18.632;2023-02-19T05:28:19;100099.03;;;1.86;100.00
36380;BME280;22411;53.016;18.632;2023-02-19T05:30:50;100099.88;;;1.86;100.00
36380;BME280;22411;53.016;18.632;2023-02-19T05:33:19;100101.53;;;1.87;100.00
36380;BME280;22411;53.016;18.632;2023-02-19T05:35:50;100099.22;;;1.81;100.00
36380;BME280;22411;53.016;18.632;2023-02-19T05:38:17;100100.16;;;1.78;100.00
36380;BME280;22411;53.016;18.632;2023-02-19T05:40:44;100098.56;;;1.76;100.00
36380;BME280;22411;53.016;18.632;2023-02-19T05:43:11;100091.72;;;1.76;100.00
36380;BME280;22411;53.016;18.632;2023-02-19T05:45:38;100094.09;;;1.81;100.00
36380;BME280;22411;53.016;18.632;2023-02-19T05:48:04;100098.31;;;1.82;100.00
36380;BME280;22411;53.016;18.632;2023-02-19T05:50:32;100083.88;;;1.81;100.00
36380;BME280;22411;53.016;18.632;2023-02-19T05:53:00;100096.59;;;1.82;100.00
36380;BME280;22411;53.016;18.632;2023-02-19T05:55:27;100082.88;;;1.85;100.00
36380;BME280;22411;53.016;18.632;2023-02-19T05:57:53;100088.75;;;1.87;100.00
36380;BME280;22411;53.016;18.632;2023-02-19T06:00:20;100093.13;;;1.83;100.00
36380;BME280;22411;53.016;18.632;2023-02-19T06:02:47;100091.66;;;1.78;100.00
36380;BME280;22411;53.016;18.632;2023-02-19T06:05:13;100096.72;;;1.79;100.00
36380;BME280;22411;53.016;18.632;2023-02-19T06:07:39;100098.38;;;1.80;100.00
36380;BME280;22411;53.016;18.632;2023-02-19T06:10:08;100106.16;;;1.77;100.00
36380;BME280;22411;53.016;18.632;2023-02-19T06:12:36;100102.59;;;1.81;100.00
36380;BME280;22411;53.016;18.632;2023-02-19T06:15:03;100097.41;;;1.83;100.00
36380;BME280;22411;53.016;18.632;2023-02-19T06:17:29;100103.31;;;1.85;100.00
36380;BME280;22411;53.016;18.632;2023-02-19T06:19:55;100110.25;;;1.81;100.00
36380;BME280;22411;53.016;18.632;2023-02-19T06:22:21;100110.97;;;1.85;100.00
36380;BME280;22411;53.016;18.632;2023-02-19T06:24:47;100109.38;;;1.82;100.00
36380;BME280;22411;53.016;18.632;2023-02-19T06:27:13;100109.50;;;1.79;100.00
36380;BME280;22411;53.016;18.632;2023-02-19T06:29:39;100110.84;;;1.88;100.00
36380;BME280;22411;53.016;18.632;2023-02-19T06:32:06;100123.69;;;1.87;100.00
36380;BME280;22411;53.016;18.632;2023-02-19T06:34:32;100120.31;;;1.86;100.00
36380;BME280;22411;53.016;18.632;2023-02-19T06:36:59;100115.06;;;1.89;100.00
36380;BME280;22411;53.016;18.632;2023-02-19T06:39:25;100131.06;;;1.94;100.00
36380;BME280;22411;53.016;18.632;2023-02-19T06:41:55;100122.31;;;2.00;100.00
36380;BME280;22411;53.016;18.632;2023-02-19T06:44:21;100128.16;;;2.03;100.00
36380;BME280;22411;53.016;18.632;2023-02-19T06:46:48;100134.22;;;2.01;100.00
36380;BME280;22411;53.016;18.632;2023-02-19T06:49:14;100131.47;;;2.05;100.00
36380;BME280;22411;53.016;18.632;2023-02-19T06:51:41;100139.75;;;2.12;100.00
36380;BME280;22411;53.016;18.632;2023-02-19T06:54:07;100137.94;;;2.14;100.00
36380;BME280;22411;53.016;18.632;2023-02-19T06:56:35;100135.53;;;2.11;100.00
36380;BME280;22411;53.016;18.632;2023-02-19T06:59:03;100143.78;;;2.18;100.00
36380;BME280;22411;53.016;18.632;2023-02-19T07:01:31;100142.97;;;2.17;100.00
36380;BME280;22411;53.016;18.632;2023-02-19T07:03:57;100144.38;;;2.24;100.00
36380;BME280;22411;53.016;18.632;2023-02-19T07:06:25;100156.06;;;2.30;100.00
36380;BME280;22411;53.016;18.632;2023-02-19T07:08:52;100164.72;;;2.27;100.00
36380;BME280;22411;53.016;18.632;2023-02-19T07:11:19;100153.59;;;2.28;100.00
36380;BME280;22411;53.016;18.632;2023-02-19T07:13:45;100173.97;;;2.30;100.00
36380;BME280;22411;53.016;18.632;2023-02-19T07:16:11;100164.50;;;2.32;100.00
36380;BME280;22411;53.016;18.632;2023-02-19T07:18:38;100170.41;;;2.34;100.00
36380;BME280;22411;53.016;18.632;2023-02-19T07:21:10;100170.34;;;2.35;100.00
36380;BME280;22411;53.016;18.632;2023-02-19T07:23:36;100172.63;;;2.43;100.00
36380;BME280;22411;53.016;18.632;2023-02-19T07:26:03;100181.16;;;2.42;100.00
36380;BME280;22411;53.016;18.632;2023-02-19T07:28:29;100173.47;;;2.42;100.00
36380;BME280;22411;53.016;18.632;2023-02-19T07:31:00;100171.78;;;2.43;100.00
36380;BME280;22411;53.016;18.632;2023-02-19T07:33:26;100174.13;;;2.47;100.00
36380;BME280;22411;53.016;18.632;2023-02-19T07:35:53;100179.69;;;2.58;100.00
36380;BME280;22411;53.016;18.632;2023-02-19T07:38:20;100185.47;;;2.62;100.00
36380;BME280;22411;53.016;18.632;2023-02-19T07:40:53;100181.66;;;2.72;100.00
36380;BME280;22411;53.016;18.632;2023-02-19T07:43:20;100184.94;;;2.76;100.00
36380;BME280;22411;53.016;18.632;2023-02-19T07:45:47;100191.63;;;2.78;100.00
36380;BME280;22411;53.016;18.632;2023-02-19T07:48:13;100187.94;;;2.85;100.00
36380;BME280;22411;53.016;18.632;2023-02-19T07:50:41;100192.72;;;2.93;100.00
36380;BME280;22411;53.016;18.632;2023-02-19T07:53:07;100192.47;;;2.99;100.00
36380;BME280;22411;53.016;18.632;2023-02-19T07:55:33;100189.00;;;3.00;100.00
36380;BME280;22411;53.016;18.632;2023-02-19T07:58:00;100194.00;;;3.03;100.00
36380;BME280;22411;53.016;18.632;2023-02-19T08:00:26;100197.84;;;3.13;100.00
36380;BME280;22411;53.016;18.632;2023-02-19T08:02:52;100202.59;;;3.23;100.00
36380;BME280;22411;53.016;18.632;2023-02-19T08:05:26;100207.19;;;3.35;100.00
36380;BME280;22411;53.016;18.632;2023-02-19T08:07:53;100212.31;;;3.35;100.00
36380;BME280;22411;53.016;18.632;2023-02-19T08:10:19;100218.06;;;3.40;100.00
36380;BME280;22411;53.016;18.632;2023-02-19T08:13:03;100221.66;;;3.36;100.00
36380;BME280;22411;53.016;18.632;2023-02-19T08:15:46;100224.22;;;3.36;100.00
36380;BME280;22411;53.016;18.632;2023-02-19T08:18:13;100225.00;;;3.38;100.00
36380;BME280;22411;53.016;18.632;2023-02-19T08:20:40;100233.50;;;3.38;100.00
36380;BME280;22411;53.016;18.632;2023-02-19T08:23:06;100234.34;;;3.39;100.00
36380;BME280;22411;53.016;18.632;2023-02-19T08:25:32;100230.44;;;3.30;100.00
36380;BME280;22411;53.016;18.632;2023-02-19T08:27:59;100237.16;;;3.33;100.00
36380;BME280;22411;53.016;18.632;2023-02-19T08:30:27;100240.41;;;3.36;100.00
36380;BME280;22411;53.016;18.632;2023-02-19T08:32:54;100242.50;;;3.47;100.00
36380;BME280;22411;53.016;18.632;2023-02-19T08:35:21;100240.59;;;3.52;100.00
36380;BME280;22411;53.016;18.632;2023-02-19T08:37:47;100242.19;;;3.55;100.00
36380;BME280;22411;53.016;18.632;2023-02-19T08:40:13;100246.13;;;3.62;100.00
36380;BME280;22411;53.016;18.632;2023-02-19T08:42:39;100250.31;;;3.64;100.00
36380;BME280;22411;53.016;18.632;2023-02-19T08:45:05;100250.03;;;3.71;100.00
36380;BME280;22411;53.016;18.632;2023-02-19T08:47:35;100260.34;;;3.69;100.00
36380;BME280;22411;53.016;18.632;2023-02-19T08:50:01;100259.13;;;3.78;100.00
36380;BME280;22411;53.016;18.632;2023-02-19T08:52:29;100254.50;;;3.86;100.00
36380;BME280;22411;53.016;18.632;2023-02-19T08:54:56;100262.34;;;4.02;100.00
36380;BME280;22411;53.016;18.632;2023-02-19T08:57:22;100263.84;;;4.06;100.00
36380;BME280;22411;53.016;18.632;2023-02-19T08:59:49;100254.22;;;3.92;100.00
36380;BME280;22411;53.016;18.632;2023-02-19T09:02:15;100256.44;;;4.00;100.00
36380;BME280;22411;53.016;18.632;2023-02-19T09:04:42;100262.81;;;4.10;100.00
36380;BME280;22411;53.016;18.632;2023-02-19T09:07:08;100259.47;;;4.27;100.00
36380;BME280;22411;53.016;18.632;2023-02-19T09:09:37;100267.38;;;4.41;100.00
36380;BME280;22411;53.016;18.632;2023-02-19T09:12:04;100269.88;;;4.24;100.00
36380;BME280;22411;53.016;18.632;2023-02-19T09:14:31;100270.22;;;4.35;100.00
36380;BME280;22411;53.016;18.632;2023-02-19T09:16:57;100278.41;;;4.43;100.00
36380;BME280;22411;53.016;18.632;2023-02-19T09:19:24;100279.09;;;4.64;100.00
36380;BME280;22411;53.016;18.632;2023-02-19T09:21:50;100279.56;;;4.91;100.00
36380;BME280;22411;53.016;18.632;2023-02-19T09:24:16;100283.31;;;5.36;100.00
36380;BME280;22411;53.016;18.632;2023-02-19T09:26:43;100288.06;;;5.94;100.00
36380;BME280;22411;53.016;18.632;2023-02-19T09:29:10;100282.03;;;6.42;100.00
36380;BME280;22411;53.016;18.632;2023-02-19T09:31:36;100290.75;;;6.55;100.00
36380;BME280;22411;53.016;18.632;2023-02-19T09:34:02;100283.69;;;6.59;100.00
36380;BME280;22411;53.016;18.632;2023-02-19T09:36:30;100280.16;;;7.06;100.00
36380;BME280;22411;53.016;18.632;2023-02-19T09:38:59;100287.84;;;7.80;100.00
36380;BME280;22411;53.016;18.632;2023-02-19T09:44:02;100292.44;;;8.04;100.00
36380;BME280;22411;53.016;18.632;2023-02-19T09:46:37;100304.59;;;7.59;100.00
36380;BME280;22411;53.016;18.632;2023-02-19T09:49:12;100303.50;;;7.19;100.00
36380;BME280;22411;53.016;18.632;2023-02-19T09:51:43;100305.34;;;7.61;100.00
36380;BME280;22411;53.016;18.632;2023-02-19T09:54:27;100316.00;;;7.69;100.00
36380;BME280;22411;53.016;18.632;2023-02-19T09:57:00;100327.22;;;7.54;100.00
36380;BME280;22411;53.016;18.632;2023-02-19T09:59:30;100329.84;;;8.81;100.00
36380;BME280;22411;53.016;18.632;2023-02-19T10:02:18;100333.38;;;9.20;100.00
36380;BME280;22411;53.016;18.632;2023-02-19T10:04:47;100332.09;;;8.58;100.00
36380;BME280;22411;53.016;18.632;2023-02-19T10:07:16;100322.28;;;8.22;100.00
36380;BME280;22411;53.016;18.632;2023-02-19T10:12:49;100324.16;;;8.76;100.00
36380;BME280;22411;53.016;18.632;2023-02-19T10:15:32;100340.47;;;9.56;100.00
36380;BME280;22411;53.016;18.632;2023-02-19T10:18:02;100342.25;;;9.15;100.00
36380;BME280;22411;53.016;18.632;2023-02-19T10:20:30;100340.53;;;9.41;99.76
36380;BME280;22411;53.016;18.632;2023-02-19T10:23:06;100355.34;;;9.00;98.64
36380;BME280;22411;53.016;18.632;2023-02-19T10:25:40;100342.94;;;8.51;100.00
36380;BME280;22411;53.016;18.632;2023-02-19T10:28:12;100346.56;;;7.47;100.00
36380;BME280;22411;53.016;18.632;2023-02-19T10:30:40;100352.22;;;7.23;100.00
36380;BME280;22411;53.016;18.632;2023-02-19T10:33:11;100335.91;;;6.93;100.00
36380;BME280;22411;53.016;18.632;2023-02-19T10:38:23;100355.31;;;7.14;100.00
36380;BME280;22411;53.016;18.632;2023-02-19T10:40:58;100347.03;;;7.09;100.00
36380;BME280;22411;53.016;18.632;2023-02-19T10:43:28;100355.38;;;7.28;100.00
36380;BME280;22411;53.016;18.632;2023-02-19T10:46:15;100351.13;;;6.18;100.00
36380;BME280;22411;53.016;18.632;2023-02-19T10:51:24;100357.00;;;5.35;100.00
36380;BME280;22411;53.016;18.632;2023-02-19T10:59:57;100370.59;;;8.49;90.56
36380;BME280;22411;53.016;18.632;2023-02-19T11:02:27;100367.00;;;9.20;77.76
36380;BME280;22411;53.016;18.632;2023-02-19T11:07:32;100372.31;;;7.02;99.68
36380;BME280;22411;53.016;18.632;2023-02-19T11:09:58;100362.03;;;6.55;100.00
36380;BME280;22411;53.016;18.632;2023-02-19T11:12:30;100368.75;;;7.94;97.26
36380;BME280;22411;53.016;18.632;2023-02-19T11:15:22;100370.63;;;9.30;80.55
36380;BME280;22411;53.016;18.632;2023-02-19T11:18:04;100372.53;;;8.59;90.03
36380;BME280;22411;53.016;18.632;2023-02-19T11:20:32;100379.00;;;8.38;86.67
36380;BME280;22411;53.016;18.632;2023-02-19T11:23:09;100376.66;;;9.03;82.98
36380;BME280;22411;53.016;18.632;2023-02-19T11:25:45;100384.56;;;8.87;90.53
36380;BME280;22411;53.016;18.632;2023-02-19T11:28:19;100396.34;;;10.97;73.50
36380;BME280;22411;53.016;18.632;2023-02-19T11:30:47;100393.06;;;11.65;67.24
36380;BME280;22411;53.016;18.632;2023-02-19T11:35:46;100390.50;;;14.25;51.70
36380;BME280;22411;53.016;18.632;2023-02-19T11:38:14;100393.94;;;14.76;45.17
36380;BME280;22411;53.016;18.632;2023-02-19T11:44:02;100397.91;;;16.06;38.76
36380;BME280;22411;53.016;18.632;2023-02-19T12:09:52;100419.88;;;8.46;56.45
36380;BME280;22411;53.016;18.632;2023-02-19T12:23:56;100421.97;;;10.89;46.01
36380;BME280;22411;53.016;18.632;2023-02-19T12:26:31;100429.53;;;13.21;37.87
36380;BME280;22411;53.016;18.632;2023-02-19T12:32:13;100432.44;;;11.59;42.17
36380;BME280;22411;53.016;18.632;2023-02-19T12:37:43;100435.50;;;7.70;60.44
36380;BME280;22411;53.016;18.632;2023-02-19T12:43:11;100439.81;;;7.55;68.07
36380;BME280;22411;53.016;18.632;2023-02-19T12:45:45;100454.63;;;7.51;69.29
36380;BME280;22411;53.016;18.632;2023-02-19T12:50:58;100457.03;;;12.80;41.55
36380;BME280;22411;53.016;18.632;2023-02-19T12:53:38;100465.38;;;11.83;42.86
36380;BME280;22411;53.016;18.632;2023-02-19T12:56:37;100451.31;;;8.81;54.48
36380;BME280;22411;53.016;18.632;2023-02-19T12:59:10;100466.19;;;9.46;51.06
36380;BME280;22411;53.016;18.632;2023-02-19T13:07:39;100467.09;;;6.64;70.66
36380;BME280;22411;53.016;18.632;2023-02-19T13:12:41;100473.63;;;6.87;67.57
36380;BME280;22411;53.016;18.632;2023-02-19T13:16:10;100469.81;;;6.45;73.30
36380;BME280;22411;53.016;18.632;2023-02-19T13:18:11;100471.00;;;6.05;76.90
36380;BME280;22411;53.016;18.632;2023-02-19T13:20:40;100467.59;;;6.05;77.36
36380;BME280;22411;53.016;18.632;2023-02-19T13:23:12;100478.06;;;6.19;76.61
36380;BME280;22411;53.016;18.632;2023-02-19T13:36:46;100484.50;;;6.27;72.69
36380;BME280;22411;53.016;18.632;2023-02-19T13:39:14;100482.28;;;6.53;68.20
36380;BME280;22411;53.016;18.632;2023-02-19T13:41:51;100488.34;;;7.01;67.00
36380;BME280;22411;53.016;18.632;2023-02-19T13:44:20;100483.03;;;7.36;61.10
36380;BME280;22411;53.016;18.632;2023-02-19T13:46:49;100484.06;;;7.63;56.71
36380;BME280;22411;53.016;18.632;2023-02-19T13:51:55;100480.78;;;7.29;55.72
36380;BME280;22411;53.016;18.632;2023-02-19T13:54:27;100495.66;;;6.93;56.02
36380;BME280;22411;53.016;18.632;2023-02-19T14:00:21;100484.59;;;7.06;58.12
36380;BME280;22411;53.016;18.632;2023-02-19T14:02:38;100497.38;;;6.76;57.25
36380;BME280;22411;53.016;18.632;2023-02-19T14:05:08;100490.06;;;6.69;59.19
36380;BME280;22411;53.016;18.632;2023-02-19T14:16:53;100519.72;;;7.25;56.83
36380;BME280;22411;53.016;18.632;2023-02-19T14:19:14;100520.78;;;7.37;55.14
36380;BME280;22411;53.016;18.632;2023-02-19T14:21:41;100518.38;;;7.49;55.38
36380;BME280;22411;53.016;18.632;2023-02-19T14:24:13;100512.69;;;7.43;54.40
36380;BME280;22411;53.016;18.632;2023-02-19T14:26:42;100520.03;;;7.34;55.29
36380;BME280;22411;53.016;18.632;2023-02-19T14:29:12;100538.69;;;7.40;54.10
36380;BME280;22411;53.016;18.632;2023-02-19T14:31:43;100534.94;;;7.29;55.63
36380;BME280;22411;53.016;18.632;2023-02-19T14:34:18;100541.97;;;7.10;55.87
36380;BME280;22411;53.016;18.632;2023-02-19T14:36:51;100548.50;;;6.84;57.34
36380;BME280;22411;53.016;18.632;2023-02-19T14:39:21;100549.34;;;6.34;59.31
36380;BME280;22411;53.016;18.632;2023-02-19T14:41:52;100551.94;;;5.81;62.27
36380;BME280;22411;53.016;18.632;2023-02-19T14:44:21;100549.88;;;5.70;64.65
36380;BME280;22411;53.016;18.632;2023-02-19T14:46:56;100552.63;;;5.84;62.50
36380;BME280;22411;53.016;18.632;2023-02-19T14:50:06;100562.66;;;6.42;59.90
36380;BME280;22411;53.016;18.632;2023-02-19T14:52:44;100553.72;;;6.32;57.96
36380;BME280;22411;53.016;18.632;2023-02-19T14:55:22;100563.50;;;6.60;57.36
36380;BME280;22411;53.016;18.632;2023-02-19T14:57:52;100571.53;;;6.54;57.21
36380;BME280;22411;53.016;18.632;2023-02-19T15:00:26;100573.09;;;6.22;58.88
36380;BME280;22411;53.016;18.632;2023-02-19T15:02:56;100563.34;;;5.94;61.29
36380;BME280;22411;53.016;18.632;2023-02-19T15:05:26;100571.44;;;5.67;62.91
36380;BME280;22411;53.016;18.632;2023-02-19T15:07:57;100571.88;;;5.94;62.52
36380;BME280;22411;53.016;18.632;2023-02-19T15:10:25;100570.09;;;6.31;61.02
36380;BME280;22411;53.016;18.632;2023-02-19T15:13:00;100588.41;;;6.42;60.09
36380;BME280;22411;53.016;18.632;2023-02-19T15:15:30;100577.44;;;6.39;60.50
36380;BME280;22411;53.016;18.632;2023-02-19T15:18:03;100584.47;;;6.35;60.82
36380;BME280;22411;53.016;18.632;2023-02-19T15:20:33;100596.25;;;6.05;61.09